x

Northwestern Hawaii Two - 190nm Nw Of Kauai Is, Hi (51101) Wave Buoy

6:50am - Tue 30th Aug 2016 All times are HST. -10 hours from GMT.

  • Sig Wave height 6.2ft
  • Swell Direction
  • Peak Period 7s
  • Average Period 6s
  • Wind
    18mph, 22mph gusts
  • Sea Temp 81°f
  • Air Temp 79°f
  • Sea Pressure 1017.3mb
  • Northwestern Hawaii Two - 190nm Nw Of Kauai Is, Hi
  • Northwestern Hawaii Two - 190nm Nw Of Kauai Is, Hi

More Historic Weather Station data

Upgrade to MSW Pro to gain access to the past 30 days of data for over 8000 Wavebouys and Weather Stations around the globe.

Join Pro

Comparision Forecast

View Surf forecast
   
Tue 08/30 6:50am 6ft 7s 6s 18 22 mph 1017.3mb 81f 79f
5:50am 6ft 7s 6s 13 25 mph 1017.2mb 81f 78f
4:50am 6ft 8s 6s 13 18 mph 1016.9mb 81f 77f
3:50am 6ft 11s 6s 13 22 mph 1017.4mb 81f 76f
2:50am 5.5ft 8s 6s 16 20 mph 1017.3mb 81f 79f
1:50am 5.5ft 8s 6s 18 22 mph 1017.6mb 81f 79f
12:50am 5.5ft 8s 6s 18 20 mph 1018mb 81f 79f
Mon 08/29 11:50pm 5ft 8s 6s 16 18 mph 1018.5mb 81f 79f
10:50pm 6ft 8s 6s 18 20 mph 1018.6mb 81f 79f
9:50pm 6ft 8s 6s 18 22 mph 1018.4mb 81f 80f
8:50pm 6ft 8s 6s 18 22 mph 1017.9mb 81f 80f
7:50pm 6ft 8s 6s 16 18 mph 1017.3mb 81f 79f
6:50pm 6ft 8s 6s 18 20 mph 1016.7mb 81f 80f
5:50pm 5.5ft 8s 6s 18 20 mph 1016mb 81f 80f
4:50pm 6ft 8s 6s 18 20 mph 1015.8mb 81f 80f
3:50pm 6ft 8s 6s 16 18 mph 1015.7mb 81f 80f
2:50pm 6.5ft 8s 6s 16 20 mph 1016.2mb 81f 80f
1:50pm 6ft 8s 6s 16 18 mph 1016.8mb 81f 80f
12:50pm 6ft 8s 6s 16 20 mph 1017.4mb 81f 79f
11:50am 6ft 8s 6s 16 20 mph 1017.6mb 81f 80f
10:50am 6ft 8s 6s 18 20 mph 1017.6mb 81f 80f
9:50am 6.5ft 8s 6s 16 20 mph 1017.8mb 81f 80f
8:50am 6ft 8s 6s 18 22 mph 1017.4mb 81f 80f
7:50am 5ft 8s 6s 16 20 mph 1017.2mb 81f 79f
6:50am 6ft 8s 6s 18 20 mph 1016.8mb 81f 79f
5:50am 6ft 8s 6s 16 20 mph 1016.3mb 81f 79f
4:50am 6.5ft 8s 6s 16 20 mph 1016.3mb 81f 79f
3:50am 6ft 8s 6s 16 20 mph 1016.2mb 81f 79f
2:50am 6ft 8s 6s 18 22 mph 1016.5mb 81f 79f
1:50am 6.5ft 8s 6s 18 22 mph 1016.6mb 81f 79f
12:50am 7ft 8s 6s 20 22 mph 1017mb 81f 79f
Sun 08/28 11:50pm 6ft 8s 6s 20 25 mph 1017.2mb 81f 79f
10:50pm 6.5ft 8s 6s 20 25 mph 1017.2mb 81f 80f
9:50pm 6ft 8s 6s 20 25 mph 1016.9mb 81f 80f
8:50pm 6ft 8s 5s 16 18 mph 1016.5mb 81f 79f
7:50pm 6.5ft 7s 6s 18 25 mph 1015.9mb 81f 79f
6:50pm 6ft 8s 6s 22 27 mph 1015.2mb 81f 79f
5:50pm 6ft 8s 6s 20 22 mph 1014.8mb 81f 79f
4:50pm 6ft 8s 6s 18 22 mph 1014.6mb 81f 79f
3:50pm 6ft 8s 6s 18 22 mph 1014.5mb 81f 80f
2:50pm 6ft 8s 6s 18 22 mph 1014.9mb 81f 77f
1:50pm 6ft 8s 6s 16 20 mph 1015.7mb 81f 78f
12:50pm 5.5ft 8s 6s 18 20 mph 1016mb 81f 78f
11:50am 6ft 8s 6s 18 20 mph 1016.2mb 81f 79f
10:50am 6ft 8s 6s 18 20 mph 1016.4mb 81f 79f
9:50am 6ft 8s 6s 18 20 mph 1016.3mb 81f 79f
8:50am 5.5ft 7s 6s 18 20 mph 1016.2mb 81f 79f
7:50am 5ft 8s 6s 18 20 mph 1015.9mb 81f 79f
6:50am 5ft 7s 6s 16 18 mph 1015.8mb 81f 79f
5:50am 5.5ft 8s 6s 16 18 mph 1015.4mb 81f 78f
4:50am 6ft 7s 6s 16 18 mph 1015.3mb 81f 78f
3:50am 5.5ft 7s 6s 16 20 mph 1015.3mb 81f 78f
2:50am 5.5ft 8s 6s 18 20 mph 1015.4mb 81f 78f
1:50am 5.5ft 8s 6s 16 18 mph 1016mb 81f 79f
12:50am 6ft 7s 6s 18 22 mph 1016.4mb 81f 79f
Sat 08/27 11:50pm 6ft 6s 6s 18 20 mph 1016.8mb 81f 79f
10:50pm 5.5ft 8s 6s 20 25 mph 1016.9mb 81f 79f
9:50pm 5ft 12s 6s 20 22 mph 1017.1mb 81f 79f
8:50pm 5ft 7s 6s 20 22 mph 1016.6mb 82f 79f
7:50pm 5ft 7s 5s 16 20 mph 1016.2mb 82f 79f
6:50pm 5ft 7s 6s 22 27 mph 1015.5mb 82f 78f
5:50pm 5ft 7s 6s 18 20 mph 1015.4mb 82f 80f
4:50pm 5ft 7s 6s 18 20 mph 1015.4mb 82f 80f
3:50pm 5ft 7s 6s 16 20 mph 1015.5mb 82f 80f
2:50pm 5ft 13s 6s 13 16 mph 1015.9mb 82f 80f
1:50pm 5ft 6s 6s 13 18 mph 1016.5mb 82f 80f
12:50pm 5ft 7s 6s 13 18 mph 1016.9mb 82f 80f
11:50am 5ft 7s 6s 13 18 mph 1017.2mb 82f 80f
10:50am 5ft 7s 6s 16 18 mph 1017.5mb 81f 79f
9:50am 5ft 7s 6s 16 18 mph 1017.6mb 81f 80f
8:50am 5ft 14s 6s 16 18 mph 1017.5mb 81f 80f
7:50am 5ft 7s 6s 13 18 mph 1017.3mb 81f 80f
6:50am 5ft 7s 6s 11 16 mph 1017.1mb 81f 79f
5:50am 4.5ft 7s 6s 13 18 mph 1016.8mb 81f 79f
4:50am 4.5ft 7s 6s 13 18 mph 1016.5mb 81f 79f
3:50am 4.5ft 8s 6s 13 18 mph 1016.7mb 81f 79f
2:50am 4.5ft 13s 6s 13 16 mph 1017.2mb 81f 79f
1:50am 4.5ft 14s 6s 16 18 mph 1017.6mb 81f 79f
12:50am 4.5ft 14s 5s 16 18 mph 1018.3mb 82f 79f
Fri 08/26 11:50pm 4.5ft 14s 5s 16 18 mph 1018.6mb 82f 80f
10:50pm 4.5ft 14s 5s 16 20 mph 1018.8mb 82f 80f
9:50pm 4.5ft 13s 5s 16 18 mph 1018.7mb 82f 80f
8:50pm 4.5ft 14s 5s 16 18 mph 1018.1mb 82f 80f
7:50pm 4ft 6s 5s 16 18 mph 1017.7mb 82f 80f
6:50pm 4.5ft 14s 5s 16 18 mph 1017.3mb 82f 80f